Time;durP1;ratioP1;P1;durP2;ratioP2;P2;SDS_P1;SDS_P2;PMS_P1;PMS_P2;Temp;Humidity;BMP_temperature;BMP_pressure;BME280_temperature;BME280_humidity;BME280_pressure;Samples;Min_cycle;Max_cycle;Signal;HPM_P1;HPM_P2
2022/08/23 00:00:47;;;;;;;29.80;19.00;;;;;;;19.38;52.40;100854.69;4812597;29;20150;-75
2022/08/23 00:03:13;;;;;;;30.27;19.00;;;;;;;19.42;52.37;100864.25;4782115;29;20135;-77
2022/08/23 00:05:39;;;;;;;29.83;19.13;;;;;;;19.39;52.21;100865.22;4782820;29;20043;-78
2022/08/23 00:08:05;;;;;;;32.33;19.58;;;;;;;19.31;52.26;100853.16;4783993;29;20569;-80
2022/08/23 00:10:31;;;;;;;31.23;20.08;;;;;;;19.37;52.54;100867.03;4783049;29;20113;-77
2022/08/23 00:12:57;;;;;;;31.20;20.42;;;;;;;19.26;52.55;100854.16;4782206;29;20054;-78
2022/08/23 00:15:24;;;;;;;33.13;19.38;;;;;;;19.35;52.49;100867.97;4784079;29;20067;-77
2022/08/23 00:17:50;;;;;;;32.65;19.77;;;;;;;19.34;52.59;100863.59;4782962;29;20043;-76
2022/08/23 00:20:19;;;;;;;30.75;20.52;;;;;;;19.35;52.66;100865.34;4783493;29;20538;-79
2022/08/23 00:22:45;;;;;;;33.03;20.17;;;;;;;19.25;52.83;100857.69;4798862;29;20043;-78
2022/08/23 00:25:12;;;;;;;30.80;20.35;;;;;;;19.32;52.84;100873.34;4784664;29;20043;-77
2022/08/23 00:27:39;;;;;;;33.10;20.75;;;;;;;19.32;53.00;100873.34;4789539;29;20096;-74
2022/08/23 00:30:07;;;;;;;37.03;21.60;;;;;;;19.26;52.95;100875.25;4770766;29;20134;-76
2022/08/23 00:32:36;;;;;;;37.88;20.63;;;;;;;19.26;53.06;100871.75;4764822;29;20058;-79
2022/08/23 00:35:04;;;;;;;37.83;21.30;;;;;;;19.16;53.38;100868.50;4766857;29;20468;-77
2022/08/23 00:37:31;;;;;;;38.70;22.70;;;;;;;19.19;53.30;100878.97;4784376;29;20062;-75
2022/08/23 00:39:58;;;;;;;44.15;24.50;;;;;;;19.07;53.46;100868.78;4805461;29;20123;-75
2022/08/23 00:48:29;;;;;;;34.35;23.60;;;;;;;19.06;53.93;100875.81;4795748;29;20104;-77
2022/08/23 00:51:04;;;;;;;41.20;24.52;;;;;;;19.06;54.02;100883.72;4782909;29;20120;-77
2022/08/23 00:53:35;;;;;;;43.65;24.08;;;;;;;19.05;54.15;100894.31;4795943;29;20047;-78
2022/08/23 00:56:05;;;;;;;44.53;26.30;;;;;;;18.95;54.34;100877.88;4781910;29;20043;-77
2022/08/23 00:58:32;;;;;;;43.63;26.80;;;;;;;19.00;54.34;100885.66;4784106;29;20110;-77
2022/08/23 01:01:01;;;;;;;40.38;24.80;;;;;;;18.98;54.57;100895.38;4784506;29;20043;-76
2022/08/23 01:03:31;;;;;;;42.25;25.38;;;;;;;18.95;54.72;100894.53;4797052;29;20043;-78
2022/08/23 01:06:06;;;;;;;42.38;25.77;;;;;;;18.90;54.68;100898.19;4781442;29;20115;-76
2022/08/23 01:08:34;;;;;;;40.55;24.83;;;;;;;18.81;55.00;100894.03;4795717;29;20054;-75
2022/08/23 01:11:10;;;;;;;43.35;24.73;;;;;;;18.85;55.27;100905.34;4782936;29;20062;-76
2022/08/23 01:13:46;;;;;;;36.88;24.23;;;;;;;18.85;55.25;100905.34;4795496;29;20547;-78
2022/08/23 01:16:23;;;;;;;39.63;24.52;;;;;;;18.79;55.34;100901.09;4803246;29;20103;-77
2022/08/23 01:18:50;;;;;;;39.25;24.75;;;;;;;18.70;55.67;100883.75;4811447;29;20539;-76
2022/08/23 01:21:31;;;;;;;38.55;24.08;;;;;;;18.72;55.64;100894.25;4802696;29;20154;-78
2022/08/23 01:24:02;;;;;;;39.80;24.10;;;;;;;18.75;55.83;100905.59;4810907;29;20041;-77
2022/08/23 01:26:33;;;;;;;38.47;26.33;;;;;;;18.74;55.94;100916.16;4810444;29;20062;-78
2022/08/23 01:29:04;;;;;;;36.55;24.45;;;;;;;18.73;55.96;100917.94;4796872;29;20047;-76
2022/08/23 01:31:35;;;;;;;39.00;24.27;;;;;;;18.65;55.85;100907.56;4811754;29;20077;-75
2022/08/23 01:34:05;;;;;;;37.38;25.17;;;;;;;18.65;56.37;100919.91;4796015;29;20130;-76
2022/08/23 01:36:32;;;;;;;34.42;23.65;;;;;;;18.59;56.19;100920.03;4805393;29;20058;-77
2022/08/23 01:39:04;;;;;;;38.65;24.30;;;;;;;18.62;56.37;100925.25;4803479;29;20079;-77
2022/08/23 01:41:31;;;;;;;42.80;25.67;;;;;;;18.60;56.64;100935.84;4805264;29;20503;-76
2022/08/23 01:43:57;;;;;;;36.17;23.05;;;;;;;18.55;56.40;100923.66;4782711;29;20044;-76
2022/08/23 01:46:26;;;;;;;41.20;24.92;;;;;;;18.54;56.67;100920.16;4798150;29;20052;-77
2022/08/23 01:48:54;;;;;;;37.10;25.13;;;;;;;18.57;56.54;100933.28;4807709;29;20539;-76
2022/08/23 01:51:22;;;;;;;40.65;24.83;;;;;;;18.57;56.70;100932.38;4780649;29;20111;-78
2022/08/23 01:53:49;;;;;;;40.58;25.25;;;;;;;18.47;56.63;100927.34;4790063;29;20050;-76
2022/08/23 01:56:20;;;;;;;38.83;24.70;;;;;;;18.48;56.96;100930.84;4793304;29;20050;-77
2022/08/23 01:58:50;;;;;;;43.03;24.20;;;;;;;18.46;56.93;100916.84;4815862;29;20059;-75
2022/08/23 02:01:17;;;;;;;38.95;24.42;;;;;;;18.60;56.95;100938.47;4817897;29;20849;-75
2022/08/23 02:03:44;;;;;;;40.08;24.98;;;;;;;18.56;56.97;100933.28;4790626;29;20158;-77
2022/08/23 02:06:10;;;;;;;38.65;24.67;;;;;;;18.58;56.93;100937.63;4819192;29;20172;-77
2022/08/23 02:11:25;;;;;;;41.70;25.15;;;;;;;18.61;56.97;100937.56;4814452;29;20058;-76
2022/08/23 02:13:54;;;;;;;45.72;25.17;;;;;;;18.61;57.11;100944.59;4812796;29;20051;-78
2022/08/23 02:16:35;;;;;;;39.65;24.73;;;;;;;18.62;57.10;100935.78;4810373;29;20067;-78
2022/08/23 02:19:07;;;;;;;38.20;25.92;;;;;;;18.59;57.16;100935.84;4780450;29;20047;-76
2022/08/23 02:21:35;;;;;;;42.58;25.80;;;;;;;18.62;57.15;100941.94;4782063;29;20104;-76
2022/08/23 02:24:12;;;;;;;42.90;25.85;;;;;;;18.61;57.23;100934.06;4792545;29;20067;-76
2022/08/23 02:26:42;;;;;;;37.50;25.13;;;;;;;18.66;57.33;100948.00;4789422;29;20082;-76
2022/08/23 02:29:08;;;;;;;37.00;24.05;;;;;;;18.59;57.23;100938.50;4798719;29;20059;-77
2022/08/23 02:31:34;;;;;;;39.05;25.13;;;;;;;18.65;57.36;100960.28;4798997;29;20585;-78
2022/08/23 02:34:01;;;;;;;42.65;25.77;;;;;;;18.65;57.09;100952.38;4783442;29;20047;-77
2022/08/23 02:36:28;;;;;;;43.97;26.30;;;;;;;18.69;57.37;100952.31;4813781;29;20166;-78
2022/08/23 02:38:55;;;;;;;45.65;26.63;;;;;;;18.69;57.40;100960.22;4814147;29;20150;-76
2022/08/23 02:41:22;;;;;;;46.22;26.23;;;;;;;18.64;57.37;100953.31;4813388;29;20542;-77
2022/08/23 02:43:52;;;;;;;45.92;25.88;;;;;;;18.67;57.69;100955.00;4798604;29;20156;-77
2022/08/23 02:46:20;;;;;;;38.95;24.63;;;;;;;18.71;57.78;100956.66;4799155;29;20142;-78
2022/08/23 02:48:47;;;;;;;47.17;27.15;;;;;;;18.75;57.73;100963.59;4813900;29;20050;-78
2022/08/23 02:51:15;;;;;;;36.10;24.30;;;;;;;18.76;57.83;100961.81;4801575;29;20050;-78
2022/08/23 02:53:42;;;;;;;42.33;24.55;;;;;;;18.80;57.56;100960.84;4817667;29;20428;-79
2022/08/23 02:56:10;;;;;;;40.95;23.80;;;;;;;18.84;57.51;100957.22;4813152;29;20076;-78
2022/08/23 02:58:38;;;;;;;34.60;23.33;;;;;;;18.91;57.59;100957.94;4837664;29;20081;-74
2022/08/23 03:01:05;;;;;;;39.95;22.15;;;;;;;18.87;57.09;100943.94;4827854;29;20058;-76
2022/08/23 03:03:31;;;;;;;35.47;24.13;;;;;;;19.09;57.33;100973.31;4823703;29;20055;-77
2022/08/23 03:05:57;;;;;;;40.80;23.98;;;;;;;19.00;56.68;100941.88;4817772;29;20063;-77
2022/08/23 03:08:24;;;;;;;39.83;24.25;;;;;;;19.11;57.09;100965.34;4811809;29;20436;-76
2022/08/23 03:10:51;;;;;;;38.78;23.75;;;;;;;19.14;56.77;100956.50;4799151;29;20062;-76
2022/08/23 03:13:19;;;;;;;35.28;22.40;;;;;;;19.29;56.78;100977.19;4814796;29;20043;-79
2022/08/23 03:15:48;;;;;;;32.03;22.17;;;;;;;19.37;56.80;100977.88;4815256;29;20212;-77
2022/08/23 03:18:16;;;;;;;40.00;23.63;;;;;;;19.43;56.56;100976.84;4799514;29;20051;-78
2022/08/23 03:20:42;;;;;;;35.33;22.13;;;;;;;19.49;56.40;100976.66;4798124;29;20393;-77
2022/08/23 03:23:10;;;;;;;35.80;22.08;;;;;;;19.58;56.23;100972.91;4797520;29;20047;-76
2022/08/23 03:25:37;;;;;;;31.83;21.63;;;;;;;19.70;56.16;100971.69;4798263;29;20053;-77
2022/08/23 03:28:20;;;;;;;35.88;22.17;;;;;;;19.76;55.88;100968.88;4812429;29;20528;-77
2022/08/23 03:30:47;;;;;;;37.88;21.52;;;;;;;19.85;55.71;100976.53;4798300;29;20065;-77
2022/08/23 03:33:13;;;;;;;33.50;21.17;;;;;;;19.90;55.54;100971.13;4813370;29;20050;-78
2022/08/23 03:35:40;;;;;;;43.10;22.55;;;;;;;19.95;55.46;100976.31;4814736;29;20047;-78
2022/08/23 03:38:08;;;;;;;33.55;21.90;;;;;;;20.03;55.47;100979.56;4803855;29;20043;-77
2022/08/23 03:40:34;;;;;;;34.30;20.20;;;;;;;20.21;55.24;100988.72;4780202;29;20047;-77
2022/08/23 03:43:02;;;;;;;35.97;21.35;;;;;;;20.29;54.99;100986.72;4793723;29;20059;-80
2022/08/23 03:45:29;;;;;;;43.33;22.38;;;;;;;20.31;55.10;100989.31;4796807;29;20057;-77
2022/08/23 03:47:55;;;;;;;40.38;21.52;;;;;;;20.45;55.09;100983.59;4813354;29;20051;-76
2022/08/23 03:50:21;;;;;;;32.70;20.25;;;;;;;20.66;54.97;100983.84;4797164;29;20116;-78
2022/08/23 03:52:48;;;;;;;36.10;21.83;;;;;;;20.81;53.78;100979.84;4782280;29;20463;-76
2022/08/23 03:55:14;;;;;;;37.17;21.27;;;;;;;20.97;53.98;100993.41;4813834;29;20047;-77
2022/08/23 03:57:43;;;;;;;34.30;21.35;;;;;;;21.06;53.07;100996.66;4812881;29;20054;-76
2022/08/23 04:00:12;;;;;;;33.65;21.50;;;;;;;21.02;53.26;100997.66;4815366;29;20504;-75
2022/08/23 04:02:42;;;;;;;35.63;24.02;;;;;;;21.18;53.69;100998.00;4790239;29;20055;-76
2022/08/23 04:05:11;;;;;;;38.15;24.20;;;;;;;21.35;53.29;101002.69;4818923;29;20086;-76
2022/08/23 04:07:50;;;;;;;38.58;23.45;;;;;;;21.37;52.36;101003.50;4784376;29;20087;-76
2022/08/23 04:10:18;;;;;;;37.45;23.25;;;;;;;21.42;52.90;101003.34;4785332;29;20043;-76
2022/08/23 04:12:48;;;;;;;30.50;21.45;;;;;;;21.42;52.57;100997.19;4803847;29;20047;-78
2022/08/23 04:15:17;;;;;;;36.33;21.85;;;;;;;21.50;52.42;101009.25;4797333;29;20059;-76
2022/08/23 04:17:43;;;;;;;32.10;21.15;;;;;;;21.36;52.63;101009.72;4813039;29;20511;-80
2022/08/23 04:20:09;;;;;;;32.25;20.60;;;;;;;21.32;52.52;101009.88;4787218;29;20047;-77
2022/08/23 04:22:44;;;;;;;34.42;20.48;;;;;;;21.33;52.87;101007.19;4797459;29;20132;-76
2022/08/23 04:25:10;;;;;;;33.33;21.58;;;;;;;21.46;52.81;101006.75;4786503;29;20512;-77
2022/08/23 04:27:36;;;;;;;32.15;20.33;;;;;;;21.70;52.57;101006.84;4817653;29;20053;-77
2022/08/23 04:30:03;;;;;;;29.67;20.73;;;;;;;21.84;51.84;101006.34;4816805;29;20047;-78
2022/08/23 04:32:30;;;;;;;35.63;23.17;;;;;;;22.01;52.15;101014.50;4796794;29;20066;-76
2022/08/23 04:34:58;;;;;;;38.72;26.00;;;;;;;22.24;51.32;101016.28;4812878;29;20116;-76
2022/08/23 04:37:24;;;;;;;40.42;26.55;;;;;;;22.46;51.20;101019.94;4812150;29;20126;-78
2022/08/23 04:42:40;;;;;;;30.83;20.23;;;;;;;22.66;50.85;101009.38;4819745;29;20146;-77
2022/08/23 04:45:07;;;;;;;28.13;19.52;;;;;;;22.68;50.15;101007.53;4801797;29;20043;-75
2022/08/23 04:47:38;;;;;;;30.80;20.02;;;;;;;22.69;50.39;101017.22;4800277;29;20051;-77
2022/08/23 04:50:07;;;;;;;37.30;19.55;;;;;;;22.84;50.36;101014.84;4809422;29;20043;-78
2022/08/23 04:52:33;;;;;;;34.78;18.92;;;;;;;23.16;50.26;101007.34;4794608;29;20055;-76
2022/08/23 04:54:59;;;;;;;24.83;17.83;;;;;;;23.34;49.06;101013.69;4816681;29;20199;-76
2022/08/23 04:57:41;;;;;;;35.58;19.13;;;;;;;23.35;49.41;101009.25;4807802;29;20051;-76
2022/08/23 05:00:12;;;;;;;24.30;17.52;;;;;;;23.37;49.16;101004.72;4815099;29;20043;-77
2022/08/23 05:02:43;;;;;;;34.80;19.05;;;;;;;23.58;49.13;101013.53;4794247;29;20104;-76
2022/08/23 05:05:10;;;;;;;28.92;18.23;;;;;;;23.78;48.94;101015.31;4811551;29;20047;-75
2022/08/23 05:07:42;;;;;;;30.40;17.95;;;;;;;24.06;48.41;101012.28;4812006;29;20119;-77
2022/08/23 05:10:11;;;;;;;23.58;17.27;;;;;;;24.36;47.97;101003.81;4781332;29;20043;-78
2022/08/23 05:12:38;;;;;;;25.42;17.10;;;;;;;24.77;47.25;101015.19;4781248;29;20070;-77
2022/08/23 05:15:05;;;;;;;31.88;17.50;;;;;;;25.15;46.96;101014.22;4812031;29;20581;-75
2022/08/23 05:17:31;;;;;;;23.17;17.10;;;;;;;25.43;46.43;101013.66;4781266;29;20054;-80
2022/08/23 05:19:57;;;;;;;31.90;15.98;;;;;;;25.74;45.92;101009.38;4781519;29;20122;-76
2022/08/23 05:22:23;;;;;;;32.92;16.38;;;;;;;26.09;45.49;101006.59;4796119;29;20146;-77
2022/08/23 05:25:22;;;;;;;25.73;15.88;;;;;;;26.98;44.58;101009.66;4777586;29;20068;-76
2022/08/23 05:27:55;;;;;;;25.40;14.98;;;;;;;27.60;43.55;101000.63;4765207;29;20047;-76
2022/08/23 05:30:21;;;;;;;22.58;14.63;;;;;;;27.84;42.19;100997.38;4796042;29;20082;-76
2022/08/23 05:32:47;;;;;;;18.33;13.82;;;;;;;27.98;41.54;100999.19;4782900;29;20107;-79
2022/08/23 05:35:13;;;;;;;21.13;13.88;;;;;;;27.95;40.71;101010.97;4763673;29;20044;-78
2022/08/23 05:37:42;;;;;;;21.52;14.13;;;;;;;28.06;41.31;101012.94;4797955;29;20055;-76
2022/08/23 05:40:09;;;;;;;17.58;13.32;;;;;;;28.41;40.77;101007.16;4798391;29;20462;-76
2022/08/23 05:42:44;;;;;;;18.13;13.00;;;;;;;28.48;39.66;101000.44;4781728;29;20057;-77
2022/08/23 05:45:10;;;;;;;19.60;12.27;;;;;;;28.45;40.03;101008.69;4782453;29;20241;-77
2022/08/23 05:47:36;;;;;;;17.25;12.30;;;;;;;28.18;40.19;100996.13;4782156;29;20051;-77
2022/08/23 05:50:21;;;;;;;18.58;12.43;;;;;;;28.19;39.79;101000.53;4796134;29;20070;-82
2022/08/23 05:52:47;;;;;;;15.73;12.02;;;;;;;28.10;40.33;101010.00;4782808;29;20051;-78
2022/08/23 05:55:13;;;;;;;16.48;11.70;;;;;;;28.32;40.45;101005.09;4798760;29;20043;-79
2022/08/23 05:57:41;;;;;;;15.52;11.02;;;;;;;29.00;39.56;101004.16;4784749;29;20059;-76
2022/08/23 06:00:13;;;;;;;14.93;11.05;;;;;;;29.22;38.62;100991.13;4799138;29;20766;-76
2022/08/23 06:02:48;;;;;;;13.88;11.43;;;;;;;29.06;38.19;101018.97;4779903;29;20051;-78
2022/08/23 06:05:16;;;;;;;21.52;12.57;;;;;;;29.05;38.35;101014.56;4796727;29;20039;-77
2022/08/23 06:07:44;;;;;;;17.90;11.38;;;;;;;29.45;37.93;101019.91;4799620;29;20051;-76
2022/08/23 06:10:10;;;;;;;17.48;11.30;;;;;;;29.69;37.49;101012.91;4799369;29;20427;-75
2022/08/23 06:12:40;;;;;;;13.98;11.13;;;;;;;29.81;37.85;101009.34;4779111;29;20055;-74
2022/08/23 06:15:07;;;;;;;15.43;10.85;;;;;;;30.07;36.92;101016.56;4769242;29;20073;-75
2022/08/23 06:17:33;;;;;;;13.93;10.85;;;;;;;29.93;36.72;101022.88;4781965;29;20051;-78
2022/08/23 06:19:59;;;;;;;14.18;10.88;;;;;;;29.91;36.96;101022.97;4799902;29;20090;-76
2022/08/23 06:22:37;;;;;;;13.50;10.50;;;;;;;29.91;36.68;101025.66;4780609;29;20143;-79
2022/08/23 06:25:03;;;;;;;16.20;11.35;;;;;;;30.22;36.60;101022.63;4770424;29;20172;-77
2022/08/23 06:27:57;;;;;;;13.40;10.60;;;;;;;30.75;35.72;101008.91;4787446;29;20062;-77
2022/08/23 06:30:24;;;;;;;16.20;10.85;;;;;;;31.34;35.38;101021.41;4790776;29;20443;-78
2022/08/23 06:32:59;;;;;;;13.43;10.05;;;;;;;31.32;34.58;101026.09;4817986;29;20047;-78
2022/08/23 06:36:03;;;;;;;12.43;10.07;;;;;;;31.77;34.12;101035.22;4796922;29;20067;-76
2022/08/23 06:38:49;;;;;;;16.30;10.00;;;;;;;31.78;34.03;101018.09;4785910;29;20043;-76
2022/08/23 06:41:49;;;;;;;13.13;9.38;;;;;;;32.07;33.71;101031.00;4776282;29;20112;-76
2022/08/23 06:44:29;;;;;;;15.63;10.85;;;;;;;32.20;32.32;101029.06;4783569;29;20078;-77
2022/08/23 06:47:22;;;;;;;12.18;9.55;;;;;;;32.71;32.38;101032.97;4768562;29;20063;-76
2022/08/23 06:49:48;;;;;;;15.30;9.70;;;;;;;33.48;31.34;101035.53;4786384;29;20229;-76
2022/08/23 06:52:15;;;;;;;14.07;10.10;;;;;;;34.22;30.58;101023.66;4799787;29;20493;-79
2022/08/23 06:55:08;;;;;;;11.85;9.68;;;;;;;34.20;29.75;101011.28;4776327;29;20122;-79
2022/08/23 06:57:42;;;;;;;14.98;9.27;;;;;;;34.85;29.79;101024.31;4799027;29;20076;-78
2022/08/23 07:00:35;;;;;;;10.70;8.85;;;;;;;35.97;28.84;101025.47;4786030;29;20047;-77
2022/08/23 07:03:11;;;;;;;14.70;9.15;;;;;;;37.15;26.97;101030.03;4800259;29;20151;-75
2022/08/23 07:05:56;;;;;;;14.13;9.23;;;;;;;37.46;26.20;101032.28;4786800;29;20051;-77
2022/08/23 07:08:27;;;;;;;11.02;8.60;;;;;;;39.20;24.76;101024.53;4770937;29;20059;-75
2022/08/23 07:10:56;;;;;;;13.63;9.32;;;;;;;39.75;23.44;101016.59;4800434;29;20053;-77
2022/08/23 07:13:23;;;;;;;16.10;9.82;;;;;;;40.63;22.97;101025.44;4797637;29;20047;-77
2022/08/23 07:15:49;;;;;;;13.73;9.20;;;;;;;40.94;21.29;101027.25;4773236;29;20328;-77
2022/08/23 07:18:17;;;;;;;11.55;9.13;;;;;;;40.63;21.52;101024.59;4808662;29;20478;-77
2022/08/23 07:20:42;;;;;;;17.70;9.48;;;;;;;40.54;21.82;101033.84;4799843;29;20069;-75
2022/08/23 07:23:09;;;;;;;13.15;11.25;;;;;;;40.21;21.62;101037.66;4784952;29;20104;-77
2022/08/23 07:25:39;;;;;;;12.25;9.98;;;;;;;39.44;22.57;101030.97;4818255;29;20054;-77
2022/08/23 07:28:06;;;;;;;12.30;9.65;;;;;;;38.32;23.20;101045.03;4804040;29;20039;-77
2022/08/23 07:30:32;;;;;;;16.73;9.40;;;;;;;38.45;23.24;101031.00;4814478;29;20055;-76
2022/08/23 07:32:58;;;;;;;13.15;8.45;;;;;;;38.48;22.91;101031.50;4813919;29;20051;-75
2022/08/23 07:35:29;;;;;;;12.90;9.27;;;;;;;38.71;22.86;101048.00;4799780;29;20051;-76
2022/08/23 07:37:58;;;;;;;16.10;10.15;;;;;;;38.76;22.82;101038.47;4813546;29;20130;-77
2022/08/23 07:40:29;;;;;;;11.70;10.18;;;;;;;38.31;23.33;101035.19;4803823;29;20047;-79
2022/08/23 07:42:57;;;;;;;12.98;9.88;;;;;;;38.75;22.91;101043.06;4800520;29;20116;-78
2022/08/23 07:45:24;;;;;;;10.90;9.30;;;;;;;39.76;22.24;101040.91;4800519;29;20789;-80
2022/08/23 07:51:11;;;;;;;11.30;8.98;;;;;;;41.97;20.63;101043.06;4784951;29;19975;-79
2022/08/23 07:53:38;;;;;;;14.77;9.93;;;;;;;42.00;19.67;101053.59;4819536;29;20047;-78
2022/08/23 07:56:09;;;;;;;11.02;9.73;;;;;;;41.86;19.29;101046.22;4806609;29;20458;-80
2022/08/23 07:58:55;;;;;;;13.80;10.35;;;;;;;41.74;19.84;101047.78;4796703;29;20050;-78
2022/08/23 08:01:34;;;;;;;11.93;9.38;;;;;;;41.75;19.84;101052.19;4785483;29;20051;-79
2022/08/23 08:04:02;;;;;;;16.52;11.30;;;;;;;42.89;19.46;101037.06;4807902;29;20046;-81
2022/08/23 08:06:39;;;;;;;12.30;9.65;;;;;;;43.74;18.81;101037.00;4802857;29;20059;-77
2022/08/23 08:09:08;;;;;;;13.70;9.25;;;;;;;44.63;17.82;101038.94;4796868;29;20047;-79
2022/08/23 08:11:34;;;;;;;9.90;8.90;;;;;;;46.05;16.82;101034.84;4782331;29;20439;-79
2022/08/23 08:14:07;;;;;;;11.43;8.80;;;;;;;46.78;15.35;101027.16;4796217;29;20452;-78
2022/08/23 08:16:47;;;;;;;12.23;8.90;;;;;;;46.93;15.69;101026.81;4808531;29;20066;-77
2022/08/23 08:19:19;;;;;;;14.40;10.65;;;;;;;46.43;15.21;101033.16;4798365;29;20047;-76
2022/08/23 08:22:03;;;;;;;13.93;10.18;;;;;;;45.36;16.27;101028.97;4788103;29;20047;-77
2022/08/23 08:24:48;;;;;;;10.68;8.90;;;;;;;45.45;16.27;101018.63;4789260;29;20043;-77
2022/08/23 08:27:14;;;;;;;10.43;8.13;;;;;;;44.98;15.94;101019.53;4818643;29;20092;-75
2022/08/23 08:29:42;;;;;;;10.98;8.35;;;;;;;43.60;16.66;101008.69;4784658;29;20051;-77
2022/08/23 08:32:09;;;;;;;10.27;8.18;;;;;;;43.32;17.20;101016.97;4786797;29;20062;-76
2022/08/23 08:34:37;;;;;;;11.10;9.02;;;;;;;43.86;17.47;101022.69;4783009;29;20070;-75
2022/08/23 08:37:04;;;;;;;10.68;8.43;;;;;;;44.54;16.55;101013.63;4803157;29;20131;-77
2022/08/23 08:39:31;;;;;;;9.60;7.50;;;;;;;44.73;16.27;101020.16;4792406;29;20051;-77
2022/08/23 08:42:40;;;;;;;11.25;8.52;;;;;;;43.54;16.78;101019.63;4793591;29;20055;-77
2022/08/23 08:45:13;;;;;;;11.20;8.10;;;;;;;42.25;17.36;101009.53;4814222;29;20047;-76
2022/08/23 08:47:59;;;;;;;11.38;8.80;;;;;;;41.03;18.39;101017.09;4781817;29;20449;-77
2022/08/23 08:50:43;;;;;;;12.70;8.98;;;;;;;39.88;19.21;101005.13;4794648;29;20073;-78
2022/08/23 08:53:18;;;;;;;11.35;8.88;;;;;;;39.74;19.78;101017.59;4811492;29;20315;-79
2022/08/23 08:56:20;;;;;;;13.15;8.75;;;;;;;39.54;20.17;101008.97;4800012;29;20420;-77
2022/08/23 08:58:59;;;;;;;19.05;15.40;;;;;;;39.45;20.03;101017.19;4815362;29;20077;-78
2022/08/23 09:01:30;;;;;;;22.42;20.02;;;;;;;39.33;20.41;101018.56;4814425;29;20050;-75
2022/08/23 09:03:56;;;;;;;13.85;12.45;;;;;;;40.33;20.02;101010.84;4786849;29;20039;-81
2022/08/23 09:06:42;;;;;;;9.80;8.82;;;;;;;41.53;18.75;101009.25;4817834;29;20404;-78
2022/08/23 09:09:17;;;;;;;11.95;8.23;;;;;;;41.88;18.88;101010.53;4819303;29;22031;-76
2022/08/23 09:12:14;;;;;;;15.27;8.35;;;;;;;43.79;17.20;101001.63;4820415;29;20565;-75
2022/08/23 09:14:47;;;;;;;10.18;7.60;;;;;;;43.99;16.66;101009.06;4822295;29;20078;-78
2022/08/23 09:17:30;;;;;;;9.60;7.82;;;;;;;44.61;16.35;100999.91;4825531;29;20127;-76
2022/08/23 09:20:02;;;;;;;9.80;7.45;;;;;;;45.24;16.21;100991.22;4796175;29;20039;-75
2022/08/23 09:22:45;;;;;;;13.98;9.20;;;;;;;45.47;14.98;101008.22;4816121;29;20059;-77
2022/08/23 09:25:23;;;;;;;13.13;7.75;;;;;;;44.99;15.11;100996.53;4817595;29;20053;-79
2022/08/23 09:28:02;;;;;;;12.95;8.35;;;;;;;45.11;14.97;100997.56;4815395;29;20086;-80
2022/08/23 09:31:04;;;;;;;;;;;;;;;44.89;15.38;101007.09;4830056;29;20044;-81
2022/08/23 09:33:40;;;;;;;9.18;8.20;;;;;;;45.15;15.54;101003.44;4807358;29;19930;-76
2022/08/23 09:36:33;;;;;;;8.30;7.40;;;;;;;44.76;15.40;100991.44;4785663;29;20142;-77
2022/08/23 09:39:25;;;;;;;9.82;7.22;;;;;;;44.50;14.99;100991.25;4815139;29;20047;-80
2022/08/23 09:41:52;;;;;;;13.45;7.68;;;;;;;43.58;15.26;100993.50;4815772;29;20051;-78
2022/08/23 09:44:42;;;;;;;9.55;7.43;;;;;;;43.80;14.65;101002.47;4814457;29;20043;-77
2022/08/23 09:47:16;;;;;;;7.88;6.60;;;;;;;42.92;15.29;100984.69;4813555;29;20090;-77
2022/08/23 09:49:50;;;;;;;10.50;7.47;;;;;;;42.07;15.78;100987.22;4815096;29;20111;-77
2022/08/23 09:52:49;;;;;;;11.07;7.82;;;;;;;41.01;16.47;100988.31;4784268;29;20541;-81
2022/08/23 09:55:28;;;;;;;11.27;7.70;;;;;;;40.26;17.31;100996.25;4770260;29;20157;-77
2022/08/23 09:57:54;;;;;;;9.90;7.55;;;;;;;39.95;17.56;101000.66;4786737;29;20043;-78
2022/08/23 10:00:35;;;;;;;12.13;8.20;;;;;;;38.96;18.88;100985.47;4789735;29;20074;-78
2022/08/23 10:03:24;;;;;;;9.15;7.15;;;;;;;38.40;19.42;100996.19;4821944;29;20051;-78
2022/08/23 10:05:56;;;;;;;8.38;7.07;;;;;;;38.30;19.55;100990.84;4806200;29;20096;-77
2022/08/23 10:08:28;;;;;;;;;;;;;;;38.28;19.25;100984.75;4795878;29;20047;-76
2022/08/23 10:11:20;;;;;;;9.70;7.38;;;;;;;38.03;19.97;100989.25;4803711;29;19913;-76
2022/08/23 10:13:46;;;;;;;12.00;7.57;;;;;;;38.19;19.50;100999.31;4827219;29;20062;-76
2022/08/23 10:16:31;;;;;;;13.85;7.57;;;;;;;38.32;19.89;100999.69;4724669;29;1284403;-77
2022/08/23 10:19:22;;;;;;;10.57;7.88;;;;;;;37.59;20.06;100984.84;4757478;29;20504;-76
2022/08/23 10:22:17;;;;;;;8.75;7.30;;;;;;;37.48;20.05;100992.25;4801656;29;21478;-77
2022/08/23 10:25:01;;;;;;;9.30;8.00;;;;;;;37.92;20.45;100985.00;4784518;29;20571;-77
2022/08/23 10:30:35;;;;;;;8.38;7.40;;;;;;;38.31;19.34;100987.09;4803672;29;20077;-77
2022/08/23 10:33:07;;;;;;;12.40;8.20;;;;;;;38.78;19.51;100982.06;4800763;29;20051;-80
2022/08/23 10:36:01;;;;;;;8.32;6.85;;;;;;;39.18;19.21;100993.91;4784292;29;20397;-78
2022/08/23 10:38:44;;;;;;;10.77;7.65;;;;;;;38.67;18.92;100989.56;4785256;29;20047;-79
2022/08/23 10:41:30;;;;;;;8.25;7.20;;;;;;;38.16;19.18;100988.78;4778690;29;20079;-76
2022/08/23 10:44:19;;;;;;;12.27;7.20;;;;;;;37.60;19.65;100986.56;4778671;29;20050;-77
2022/08/23 10:47:00;;;;;;;9.80;7.20;;;;;;;37.08;20.01;100989.09;4800644;29;20054;-76
2022/08/23 10:49:28;;;;;;;10.27;7.50;;;;;;;36.84;20.30;100983.50;4802014;29;20512;-76
2022/08/23 10:51:56;;;;;;;8.30;7.13;;;;;;;36.58;20.43;100990.56;4770058;29;20377;-75
2022/08/23 10:54:34;;;;;;;9.75;7.18;;;;;;;36.52;20.41;100983.09;4798869;29;20063;-77
2022/08/23 10:57:05;;;;;;;9.85;7.25;;;;;;;36.33;21.02;100976.75;4799334;29;20046;-79
2022/08/23 10:59:35;;;;;;;7.28;6.30;;;;;;;36.07;21.21;100986.66;4783640;29;20065;-78
2022/08/23 11:02:40;;;;;;;6.95;6.25;;;;;;;36.06;21.25;100980.38;4798516;29;20082;-76
2022/08/23 11:05:34;;;;;;;10.15;9.00;;;;;;;35.79;21.65;100984.78;4784552;29;20051;-78
2022/08/23 11:08:29;;;;;;;12.90;7.22;;;;;;;35.71;21.90;100971.16;4779458;29;20868;-79
2022/08/23 11:10:55;;;;;;;7.72;6.47;;;;;;;35.82;21.79;100978.22;4768704;29;20146;-78
2022/08/23 11:13:24;;;;;;;10.30;6.72;;;;;;;35.96;21.17;100957.94;4782610;29;20585;-78
2022/08/23 11:15:59;;;;;;;7.20;6.53;;;;;;;35.70;21.78;100975.72;4805082;29;20062;-77
2022/08/23 11:18:37;;;;;;;7.38;6.57;;;;;;;35.40;21.65;100974.97;4799210;29;20046;-77
2022/08/23 11:21:38;;;;;;;7.60;6.20;;;;;;;35.39;22.17;100967.84;4784960;29;20050;-76
2022/08/23 11:24:11;;;;;;;7.57;5.20;;;;;;;35.18;22.10;100999.66;4813984;29;20043;-77
2022/08/23 11:26:40;;;;;;;6.50;5.60;;;;;;;34.91;22.00;100990.44;4800512;29;20050;-77
2022/08/23 11:29:10;;;;;;;6.40;5.40;;;;;;;34.93;21.76;100983.88;4798799;29;20074;-75
2022/08/23 11:31:59;;;;;;;9.43;5.35;;;;;;;34.95;21.80;100979.22;4784814;29;20425;-77
2022/08/23 11:34:39;;;;;;;6.38;5.43;;;;;;;34.79;21.73;100962.72;4814081;29;20208;-78
2022/08/23 11:37:18;;;;;;;8.25;5.57;;;;;;;34.89;21.99;100978.91;4793923;29;20047;-76
2022/08/23 11:39:56;;;;;;;6.82;4.88;;;;;;;34.97;21.95;100993.44;4813160;29;20051;-78
2022/08/23 11:42:36;;;;;;;7.38;5.60;;;;;;;34.77;22.11;100981.75;4812713;29;20058;-77
2022/08/23 11:45:32;;;;;;;7.50;5.53;;;;;;;34.60;22.00;100980.66;4782995;29;20661;-77
2022/08/23 11:48:07;;;;;;;7.97;4.95;;;;;;;34.47;22.07;100991.72;4813018;29;20051;-76
2022/08/23 11:51:07;;;;;;;7.05;5.20;;;;;;;34.27;22.25;100980.00;4812569;29;20055;-77
2022/08/23 11:53:48;;;;;;;6.28;5.32;;;;;;;34.31;22.11;100977.91;4784227;29;20046;-77
2022/08/23 11:56:45;;;;;;;7.43;5.10;;;;;;;34.23;22.02;100976.75;4812608;29;20058;-76
2022/08/23 11:59:33;;;;;;;5.72;5.15;;;;;;;34.27;22.31;100971.91;4795696;29;20197;-76